Time;durP1;ratioP1;P1;durP2;ratioP2;P2;SDS_P1;SDS_P2;PMS_P1;PMS_P2;Temp;Humidity;BMP_temperature;BMP_pressure;BME280_temperature;BME280_humidity;BME280_pressure;Samples;Min_cycle;Max_cycle;Signal;HPM_P1;HPM_P2
2022/04/29 00:01:07;;;;;;;6.28;3.50;;;;;;;12.26;56.56;100865.88;4491825;31;33614;-61
2022/04/29 00:03:35;;;;;;;7.20;3.05;;;;;;;11.87;58.70;100866.28;4495571;31;34292;-61
2022/04/29 00:06:04;;;;;;;6.90;3.62;;;;;;;11.73;58.31;100867.22;4487057;31;34824;-62
2022/04/29 00:08:31;;;;;;;6.70;3.33;;;;;;;11.63;57.85;100863.22;4492967;31;33941;-61
2022/04/29 00:10:59;;;;;;;5.55;3.20;;;;;;;11.65;58.66;100868.47;4496290;31;33594;-62
2022/04/29 00:13:27;;;;;;;6.37;3.37;;;;;;;11.63;59.43;100864.88;4494518;31;33426;-60
2022/04/29 00:15:55;;;;;;;6.70;3.10;;;;;;;11.46;58.89;100859.63;4492596;31;34722;-60
2022/04/29 00:18:23;;;;;;;6.97;3.30;;;;;;;11.44;58.09;100866.44;4487088;31;33467;-61
2022/04/29 00:20:51;;;;;;;6.75;3.55;;;;;;;11.50;58.04;100861.59;4495931;31;33845;-61
2022/04/29 00:23:19;;;;;;;6.25;3.30;;;;;;;11.60;58.02;100863.91;4492400;31;34146;-61
2022/04/29 00:25:46;;;;;;;5.80;3.08;;;;;;;11.72;57.14;100855.03;4494509;31;33455;-61
2022/04/29 00:28:14;;;;;;;6.28;3.40;;;;;;;12.03;56.26;100862.00;4488096;31;33923;-62
2022/04/29 00:30:42;;;;;;;7.80;3.53;;;;;;;12.26;55.63;100860.66;4492248;31;33567;-61
2022/04/29 00:33:11;;;;;;;8.98;3.87;;;;;;;12.17;55.71;100859.38;4490875;31;33895;-61
2022/04/29 00:35:38;;;;;;;5.32;3.12;;;;;;;11.89;57.23;100861.19;4491619;31;33541;-62
2022/04/29 00:38:06;;;;;;;6.20;3.30;;;;;;;12.18;56.10;100860.25;4491702;31;34825;-59
2022/04/29 00:40:33;;;;;;;5.57;3.20;;;;;;;11.84;56.16;100860.94;4493119;31;33535;-60
2022/04/29 00:43:01;;;;;;;6.22;3.30;;;;;;;12.82;52.54;100854.13;4490031;31;34010;-59
2022/04/29 00:45:29;;;;;;;5.40;2.67;;;;;;;13.21;51.82;100854.41;4492168;31;34546;-59
2022/04/29 00:47:57;;;;;;;7.30;2.70;;;;;;;13.82;47.62;100852.28;4489191;31;33747;-59
2022/04/29 00:50:27;;;;;;;5.95;2.67;;;;;;;13.83;45.73;100848.88;4486995;31;34650;-59
2022/04/29 00:52:58;;;;;;;7.75;3.25;;;;;;;13.93;46.15;100851.09;4490833;31;34075;-59
2022/04/29 00:55:26;;;;;;;5.85;3.10;;;;;;;13.95;49.98;100857.25;4492771;31;33891;-59
2022/04/29 00:58:08;;;;;;;6.80;3.80;;;;;;;14.05;50.43;100845.56;4489340;31;33724;-59
2022/04/29 01:00:36;;;;;;;4.93;2.72;;;;;;;13.73;51.48;100863.16;4490900;31;34769;-59
2022/04/29 01:03:06;;;;;;;6.90;3.17;;;;;;;13.80;51.26;100864.34;4495127;31;33509;-60
2022/04/29 01:05:33;;;;;;;8.75;3.47;;;;;;;14.07;50.79;100853.47;4492632;31;33664;-59
2022/04/29 01:08:01;;;;;;;7.32;3.40;;;;;;;13.25;53.53;100862.47;4491797;31;33700;-59
2022/04/29 01:10:29;;;;;;;6.05;3.60;;;;;;;13.67;52.04;100856.75;4492876;31;33970;-59
2022/04/29 01:12:58;;;;;;;5.37;3.10;;;;;;;13.81;51.99;100867.81;4498498;31;34077;-59
2022/04/29 01:15:27;;;;;;;7.05;3.37;;;;;;;12.80;55.10;100854.03;4489675;31;34587;-59
2022/04/29 01:18:03;;;;;;;6.47;3.08;;;;;;;12.56;56.10;100861.44;4490989;31;34016;-59
2022/04/29 01:20:32;;;;;;;6.75;3.28;;;;;;;12.32;56.41;100855.81;4493961;31;32536;-59
2022/04/29 01:23:10;;;;;;;5.95;3.30;;;;;;;12.41;56.21;100845.91;4490501;31;33152;-59
2022/04/29 01:25:39;;;;;;;6.50;3.53;;;;;;;11.68;57.50;100847.88;4493572;31;33970;-59
2022/04/29 01:28:07;;;;;;;8.43;4.20;;;;;;;11.21;60.99;100850.41;4492027;31;34254;-59
2022/04/29 01:30:36;;;;;;;8.73;5.07;;;;;;;10.48;65.79;100845.97;4494337;31;33619;-59
2022/04/29 01:33:05;;;;;;;8.55;4.95;;;;;;;10.27;67.72;100848.09;4488993;31;34049;-59
2022/04/29 01:35:32;;;;;;;8.45;5.30;;;;;;;10.08;69.20;100848.62;4485062;31;33925;-59
2022/04/29 01:38:00;;;;;;;8.23;4.90;;;;;;;9.78;69.92;100851.03;4495699;31;34369;-59
2022/04/29 01:40:28;;;;;;;7.28;4.25;;;;;;;9.62;71.10;100846.56;4497574;31;33757;-59
2022/04/29 01:42:56;;;;;;;7.25;4.50;;;;;;;9.91;67.73;100853.63;4496136;31;33432;-59
2022/04/29 01:45:23;;;;;;;8.88;4.20;;;;;;;9.91;67.91;100847.53;4493848;31;33933;-59
2022/04/29 01:47:51;;;;;;;5.93;3.33;;;;;;;10.51;64.43;100844.47;4494379;31;34669;-59
2022/04/29 01:50:19;;;;;;;7.80;3.37;;;;;;;10.55;63.17;100841.28;4488257;31;33948;-59
2022/04/29 01:52:48;;;;;;;7.70;3.87;;;;;;;10.27;64.51;100851.56;4497576;31;33444;-59
2022/04/29 01:55:16;;;;;;;7.37;3.87;;;;;;;10.30;64.43;100844.03;4500805;31;33967;-59
2022/04/29 01:57:45;;;;;;;7.75;3.70;;;;;;;10.61;62.84;100840.75;4494185;31;33793;-59
2022/04/29 02:00:13;;;;;;;9.75;4.03;;;;;;;10.77;62.58;100840.87;4489459;31;34591;-59
2022/04/29 02:02:41;;;;;;;7.07;3.85;;;;;;;10.54;62.34;100842.06;4492924;31;34284;-59
2022/04/29 02:05:11;;;;;;;9.02;3.58;;;;;;;10.88;61.63;100848.41;4497228;31;33872;-59
2022/04/29 02:07:38;;;;;;;8.00;3.67;;;;;;;10.79;60.68;100839.25;4501073;31;33673;-59
2022/04/29 02:10:06;;;;;;;7.00;3.53;;;;;;;11.20;59.55;100848.62;4495440;31;34574;-59
2022/04/29 02:12:35;;;;;;;6.87;3.65;;;;;;;10.72;61.61;100844.91;4497502;31;33417;-59
2022/04/29 02:15:07;;;;;;;6.45;3.62;;;;;;;11.07;60.93;100835.75;4499733;31;33736;-59
2022/04/29 02:17:35;;;;;;;6.75;3.58;;;;;;;10.14;63.06;100844.75;4501092;31;33955;-59
2022/04/29 02:20:03;;;;;;;6.20;3.90;;;;;;;10.42;62.50;100842.19;4501278;31;33777;-59
2022/04/29 02:22:31;;;;;;;5.43;3.60;;;;;;;10.80;60.61;100835.88;4499913;31;33196;-59
2022/04/29 02:24:59;;;;;;;5.65;3.20;;;;;;;10.68;60.25;100836.81;4497162;31;34021;-59
2022/04/29 02:27:27;;;;;;;6.62;3.80;;;;;;;10.64;59.98;100838.31;4496914;31;33915;-59
2022/04/29 02:29:54;;;;;;;6.87;3.72;;;;;;;10.12;62.42;100842.81;4497102;31;33608;-59
2022/04/29 02:32:22;;;;;;;8.57;4.15;;;;;;;10.27;62.37;100841.19;4487227;31;32786;-59
2022/04/29 02:34:49;;;;;;;7.40;4.10;;;;;;;10.08;63.61;100853.78;4500469;31;34151;-59
2022/04/29 02:37:17;;;;;;;6.75;3.85;;;;;;;9.96;63.92;100854.78;4491110;31;33718;-59
2022/04/29 02:39:45;;;;;;;7.12;4.00;;;;;;;9.87;63.61;100851.66;4493518;31;33743;-59
2022/04/29 02:42:13;;;;;;;6.05;3.17;;;;;;;9.93;63.40;100857.22;4496124;31;33229;-59
2022/04/29 02:44:40;;;;;;;6.93;3.67;;;;;;;9.92;62.53;100852.81;4491452;31;34670;-59
2022/04/29 02:47:08;;;;;;;7.30;4.00;;;;;;;9.81;62.76;100844.38;4497142;31;33951;-59
2022/04/29 02:49:38;;;;;;;6.20;3.92;;;;;;;9.75;62.98;100843.97;4500985;31;33895;-59
2022/04/29 02:52:07;;;;;;;8.82;4.50;;;;;;;9.69;63.34;100853.03;4499753;31;33110;-59
2022/04/29 02:54:35;;;;;;;7.60;4.00;;;;;;;9.53;64.41;100852.03;4497058;31;33520;-59
2022/04/29 02:57:05;;;;;;;8.90;4.55;;;;;;;9.51;65.08;100851.03;4498469;31;34000;-59
2022/04/29 02:59:33;;;;;;;7.15;4.28;;;;;;;9.27;65.83;100846.81;4492603;31;33656;-59
2022/04/29 03:02:01;;;;;;;8.82;4.35;;;;;;;9.29;66.02;100850.41;4496465;31;33503;-59
2022/04/29 03:04:28;;;;;;;9.32;4.70;;;;;;;9.98;63.68;100848.03;4497905;31;33867;-59
2022/04/29 03:06:56;;;;;;;7.90;4.50;;;;;;;10.22;62.01;100853.00;4490660;31;34501;-59
2022/04/29 03:09:25;;;;;;;8.05;4.35;;;;;;;10.02;63.13;100854.28;4490832;31;34715;-59
2022/04/29 03:11:52;;;;;;;7.20;4.32;;;;;;;9.94;62.76;100845.16;4495605;31;33500;-59
2022/04/29 03:14:20;;;;;;;7.53;4.80;;;;;;;10.17;61.50;100851.78;4490039;31;34224;-59
2022/04/29 03:16:50;;;;;;;8.18;4.70;;;;;;;9.59;63.43;100849.84;4496533;31;33486;-59
2022/04/29 03:19:18;;;;;;;8.10;4.45;;;;;;;10.49;61.49;100847.75;4492534;31;34448;-59
2022/04/29 03:21:47;;;;;;;8.25;4.32;;;;;;;10.63;61.17;100852.09;4489417;31;33154;-59
2022/04/29 03:24:14;;;;;;;12.00;4.78;;;;;;;9.97;64.27;100850.53;4495336;31;33770;-59
2022/04/29 03:26:42;;;;;;;9.20;5.10;;;;;;;11.25;59.77;100840.22;4490855;31;32991;-59
2022/04/29 03:29:09;;;;;;;8.82;4.68;;;;;;;10.68;62.51;100842.94;4495306;31;34009;-59
2022/04/29 03:31:37;;;;;;;9.00;4.75;;;;;;;9.29;65.90;100847.81;4484169;31;34050;-60
2022/04/29 03:34:06;;;;;;;8.90;5.07;;;;;;;10.39;62.66;100847.22;4495019;31;34303;-59
2022/04/29 03:36:33;;;;;;;8.88;4.55;;;;;;;10.75;61.58;100837.28;4490804;31;35359;-59
2022/04/29 03:39:02;;;;;;;10.98;5.20;;;;;;;10.93;60.66;100837.53;4494943;31;33731;-59
2022/04/29 03:41:30;;;;;;;8.70;4.25;;;;;;;11.33;58.96;100833.78;4499295;31;33391;-59
2022/04/29 03:43:58;;;;;;;6.70;4.28;;;;;;;11.22;59.13;100843.50;4497214;31;34707;-59
2022/04/29 03:46:28;;;;;;;10.88;5.18;;;;;;;11.26;59.38;100842.00;4499036;31;33970;-59
2022/04/29 03:51:44;;;;;;;10.65;5.20;;;;;;;10.94;60.85;100843.59;4498442;31;33427;-59
2022/04/29 03:54:12;;;;;;;10.48;6.00;;;;;;;10.92;61.07;100850.37;4493923;31;33694;-59
2022/04/29 03:56:40;;;;;;;10.57;6.05;;;;;;;9.76;65.75;100856.12;4494222;31;34086;-58
2022/04/29 03:59:07;;;;;;;9.40;5.10;;;;;;;9.63;65.97;100853.53;4493602;31;33814;-59
2022/04/29 04:01:35;;;;;;;9.32;5.10;;;;;;;10.33;64.17;100857.16;4497962;31;33182;-59
2022/04/29 04:04:03;;;;;;;9.82;5.43;;;;;;;11.36;60.85;100854.72;4492741;31;34169;-59
2022/04/29 04:06:49;;;;;;;9.15;6.00;;;;;;;11.37;60.89;100851.31;4493141;31;33844;-59
2022/04/29 04:09:21;;;;;;;9.27;5.75;;;;;;;10.21;64.60;100871.91;4489936;31;33797;-60
2022/04/29 04:11:50;;;;;;;10.65;6.00;;;;;;;11.17;62.76;100858.81;4493332;31;33337;-60
2022/04/29 04:14:24;;;;;;;9.10;5.62;;;;;;;10.92;62.43;100851.28;4490033;31;34610;-60
2022/04/29 04:16:51;;;;;;;12.90;6.40;;;;;;;9.97;66.61;100859.19;4498422;31;33837;-60
2022/04/29 04:19:19;;;;;;;11.35;7.32;;;;;;;10.72;63.78;100860.44;4486274;31;33931;-60
2022/04/29 04:21:48;;;;;;;11.12;6.68;;;;;;;10.45;65.10;100869.09;4493525;31;33208;-60
2022/04/29 04:24:15;;;;;;;10.63;6.97;;;;;;;10.19;65.50;100878.69;4498478;31;34779;-60
2022/04/29 04:26:44;;;;;;;11.27;7.30;;;;;;;9.87;66.93;100874.94;4495225;31;33635;-60
2022/04/29 04:29:12;;;;;;;12.80;7.60;;;;;;;9.67;68.04;100870.16;4489230;31;33856;-60
2022/04/29 04:31:43;;;;;;;14.50;7.85;;;;;;;9.72;68.13;100868.75;4498698;31;33437;-60
2022/04/29 04:36:57;;;;;;;12.82;7.22;;;;;;;10.40;65.47;100877.47;4484555;31;34726;-60
2022/04/29 04:39:25;;;;;;;11.88;7.10;;;;;;;9.90;66.54;100885.47;4469789;31;32307;-60
2022/04/29 04:41:54;;;;;;;11.77;7.10;;;;;;;10.12;66.04;100892.03;4473480;32;33557;-60
2022/04/29 04:44:22;;;;;;;10.95;6.43;;;;;;;10.20;65.76;100890.84;4484359;31;33421;-60
2022/04/29 04:46:50;;;;;;;10.63;6.80;;;;;;;10.06;65.28;100886.47;4492048;31;33962;-60
2022/04/29 04:49:20;;;;;;;12.63;7.10;;;;;;;10.41;64.56;100886.12;4497430;31;32956;-60
2022/04/29 04:51:48;;;;;;;11.57;6.62;;;;;;;10.91;63.92;100879.69;4497342;31;34262;-60
2022/04/29 04:54:25;;;;;;;10.32;5.75;;;;;;;11.35;61.38;100884.03;4499905;31;32855;-60
2022/04/29 04:56:52;;;;;;;11.48;6.40;;;;;;;12.29;57.57;100885.13;4493231;31;33568;-60
2022/04/29 04:59:20;;;;;;;12.45;6.40;;;;;;;11.69;58.39;100886.03;4487625;31;34461;-60
2022/04/29 05:01:51;;;;;;;9.02;5.78;;;;;;;12.28;57.68;100879.84;4495305;31;33523;-60
2022/04/29 05:04:21;;;;;;;10.15;6.00;;;;;;;12.16;58.82;100882.66;4497507;31;32023;-60
2022/04/29 05:06:51;;;;;;;13.80;7.18;;;;;;;12.11;57.85;100889.28;4492095;31;32297;-60
2022/04/29 05:09:19;;;;;;;10.00;6.30;;;;;;;12.66;56.84;100879.31;4493829;31;33638;-60
2022/04/29 05:11:47;;;;;;;10.65;6.35;;;;;;;11.34;60.82;100887.47;4496507;31;33338;-60
2022/04/29 05:14:38;;;;;;;9.60;6.90;;;;;;;11.11;61.72;100879.19;4492466;31;32445;-60
2022/04/29 05:17:05;;;;;;;11.02;6.85;;;;;;;11.28;61.71;100894.84;4501985;31;33875;-60
2022/04/29 05:19:36;;;;;;;12.93;6.30;;;;;;;11.83;60.00;100895.47;4493895;31;33758;-60
2022/04/29 05:22:05;;;;;;;10.02;6.32;;;;;;;11.61;60.90;100894.25;4496150;31;33412;-60
2022/04/29 05:24:33;;;;;;;10.27;5.97;;;;;;;11.38;61.05;100892.03;4494008;31;32578;-60
2022/04/29 05:27:04;;;;;;;13.13;6.50;;;;;;;11.64;59.97;100898.72;4499646;31;32467;-60
2022/04/29 05:29:37;;;;;;;11.88;6.12;;;;;;;11.85;59.37;100904.25;4501379;31;34512;-60
2022/04/29 05:32:12;;;;;;;9.85;6.55;;;;;;;12.84;58.10;100894.09;4495465;31;33588;-61
2022/04/29 05:34:45;;;;;;;9.43;5.87;;;;;;;12.82;58.02;100894.03;4494143;31;32994;-61
2022/04/29 05:37:17;;;;;;;13.32;6.57;;;;;;;12.95;57.56;100896.47;4489629;31;34641;-61
2022/04/29 05:42:31;;;;;;;9.80;5.95;;;;;;;14.31;54.19;100896.31;4498220;31;33865;-60
2022/04/29 05:45:02;;;;;;;10.00;5.47;;;;;;;13.16;56.03;100883.69;4493367;31;33545;-60
2022/04/29 05:47:30;;;;;;;10.45;5.55;;;;;;;14.28;52.38;100885.75;4495939;31;34587;-60
2022/04/29 05:49:57;;;;;;;9.95;6.18;;;;;;;13.53;55.07;100888.19;4491317;31;33496;-60
2022/04/29 05:52:26;;;;;;;10.40;5.55;;;;;;;13.96;53.61;100892.94;4487612;31;33250;-60
2022/04/29 05:54:53;;;;;;;10.77;5.65;;;;;;;13.51;54.53;100887.22;4496177;31;33873;-61
2022/04/29 05:57:21;;;;;;;9.73;5.60;;;;;;;14.36;53.26;100897.41;4497810;31;33859;-61
2022/04/29 05:59:50;;;;;;;12.52;5.85;;;;;;;13.59;53.69;100895.41;4497453;31;34284;-60
2022/04/29 06:02:23;;;;;;;10.00;4.50;;;;;;;14.40;52.53;100894.97;4490421;31;33911;-60
2022/04/29 06:04:52;;;;;;;9.00;5.25;;;;;;;14.64;51.25;100898.75;4492499;31;34215;-61
2022/04/29 06:07:20;;;;;;;8.45;4.60;;;;;;;13.78;52.62;100907.63;4489060;31;34725;-60
2022/04/29 06:09:48;;;;;;;6.25;3.95;;;;;;;13.63;52.89;100904.28;4477541;31;32994;-60
2022/04/29 06:12:16;;;;;;;7.20;4.25;;;;;;;14.41;50.25;100904.56;4492444;31;34024;-60
2022/04/29 06:14:45;;;;;;;9.60;4.35;;;;;;;13.96;51.85;100911.16;4495330;31;34601;-60
2022/04/29 06:17:15;;;;;;;7.80;3.80;;;;;;;14.67;49.79;100906.69;4497573;31;34606;-60
2022/04/29 06:19:48;;;;;;;7.15;3.20;;;;;;;14.57;49.12;100899.28;4495020;31;32071;-60
2022/04/29 06:22:17;;;;;;;5.65;3.40;;;;;;;14.28;48.13;100911.81;4493224;31;32936;-58
2022/04/29 06:24:46;;;;;;;7.20;3.12;;;;;;;14.40;47.95;100908.00;4497006;31;34816;-60
2022/04/29 06:27:33;;;;;;;6.90;3.03;;;;;;;14.55;46.12;100911.31;4493192;31;34586;-60
2022/04/29 06:30:01;;;;;;;5.45;2.72;;;;;;;14.54;44.68;100905.22;4490351;31;34675;-60
2022/04/29 06:32:32;;;;;;;7.10;3.35;;;;;;;14.79;44.18;100902.88;4487030;31;33618;-60
2022/04/29 06:35:02;;;;;;;5.75;3.40;;;;;;;15.04;45.73;100907.47;4499684;31;32018;-59
2022/04/29 06:37:30;;;;;;;6.05;2.92;;;;;;;15.63;43.83;100910.88;4492443;31;34788;-60
2022/04/29 06:39:59;;;;;;;6.65;2.97;;;;;;;16.35;42.23;100905.09;4489132;31;33911;-60
2022/04/29 06:42:29;;;;;;;9.35;3.37;;;;;;;17.01;40.81;100905.88;4489820;31;31752;-60
2022/04/29 06:44:59;;;;;;;6.60;3.40;;;;;;;16.40;41.76;100908.75;4487432;31;32672;-60
2022/04/29 06:47:31;;;;;;;6.18;3.00;;;;;;;16.09;43.38;100894.50;4486454;31;34698;-61
2022/04/29 06:50:04;;;;;;;5.93;2.50;;;;;;;16.71;41.60;100901.28;4487411;31;34055;-60
2022/04/29 06:52:34;;;;;;;5.32;2.28;;;;;;;17.23;39.17;100901.41;4496956;31;33331;-60
2022/04/29 06:55:03;;;;;;;7.20;2.55;;;;;;;16.57;39.58;100896.34;4493756;31;33978;-60
2022/04/29 06:57:31;;;;;;;6.25;2.30;;;;;;;16.63;39.62;100897.47;4495414;31;34452;-60
2022/04/29 06:59:59;;;;;;;4.75;2.05;;;;;;;16.94;37.23;100898.66;4488345;31;33898;-60
2022/04/29 07:02:26;;;;;;;7.15;2.55;;;;;;;16.70;36.57;100891.63;4492067;31;33862;-60
2022/04/29 07:04:55;;;;;;;5.25;2.33;;;;;;;17.45;34.68;100897.81;4498275;31;33619;-61
2022/04/29 07:07:24;;;;;;;4.37;2.28;;;;;;;17.57;34.83;100897.34;4495638;31;34640;-60
2022/04/29 07:09:54;;;;;;;3.87;2.17;;;;;;;17.26;35.54;100901.53;4491527;31;34657;-60
2022/04/29 07:12:34;;;;;;;4.55;2.20;;;;;;;17.35;35.67;100901.84;4492058;31;34146;-61
2022/04/29 07:15:01;;;;;;;4.60;2.15;;;;;;;16.93;34.88;100891.63;4490364;31;33918;-61
2022/04/29 07:17:29;;;;;;;6.35;2.62;;;;;;;17.48;33.78;100893.59;4492161;31;34507;-60
2022/04/29 07:19:58;;;;;;;5.40;2.53;;;;;;;17.51;33.90;100891.91;4491474;31;34863;-60
2022/04/29 07:22:29;;;;;;;4.95;2.30;;;;;;;17.74;34.90;100893.56;4489186;31;33476;-60
2022/04/29 07:24:57;;;;;;;4.57;2.30;;;;;;;17.21;34.97;100900.47;4485311;31;33828;-60
2022/04/29 07:27:28;;;;;;;4.00;2.30;;;;;;;17.02;35.29;100891.97;4487141;31;33702;-60
2022/04/29 07:29:58;;;;;;;5.20;2.08;;;;;;;17.29;34.52;100899.91;4496024;31;34634;-60
2022/04/29 07:32:27;;;;;;;3.75;2.10;;;;;;;17.44;35.98;100899.56;4476002;31;33280;-60
2022/04/29 07:43:21;;;;;;;5.93;2.20;;;;;;;18.46;32.87;100889.72;4490697;31;33181;-61
2022/04/29 07:45:51;;;;;;;5.82;2.45;;;;;;;19.72;30.16;100888.03;4492581;31;33440;-61
2022/04/29 07:48:22;;;;;;;5.28;2.20;;;;;;;19.86;30.35;100887.44;4486499;31;32601;-61
2022/04/29 07:50:51;;;;;;;3.80;2.15;;;;;;;20.06;30.26;100886.19;4491662;31;33679;-61
2022/04/29 07:53:18;;;;;;;3.75;1.90;;;;;;;20.50;29.70;100881.03;4491365;31;33822;-61
2022/04/29 07:55:46;;;;;;;3.30;2.00;;;;;;;21.44;28.42;100890.84;4494643;31;33940;-61
2022/04/29 07:58:15;;;;;;;4.87;2.50;;;;;;;22.10;26.20;100884.03;4489613;31;33830;-61
2022/04/29 08:00:43;;;;;;;5.22;2.47;;;;;;;22.05;26.12;100882.16;4490522;31;34105;-61
2022/04/29 08:03:32;;;;;;;7.15;2.22;;;;;;;21.68;26.76;100882.47;4490901;31;34104;-61
2022/04/29 08:06:00;;;;;;;4.28;2.37;;;;;;;22.70;26.00;100881.34;4491286;31;33883;-61
2022/04/29 08:08:28;;;;;;;4.07;2.10;;;;;;;23.14;25.21;100878.34;4487763;31;32832;-61
2022/04/29 08:10:56;;;;;;;5.07;2.15;;;;;;;24.21;24.47;100873.09;4493833;31;33561;-61
2022/04/29 08:13:24;;;;;;;6.12;2.35;;;;;;;23.69;24.17;100883.28;4492833;31;33526;-62
2022/04/29 08:15:58;;;;;;;3.33;1.90;;;;;;;23.82;24.06;100884.31;4493906;31;32301;-61
2022/04/29 08:18:28;;;;;;;7.07;2.30;;;;;;;24.29;23.51;100875.78;4492261;31;33955;-62
2022/04/29 08:20:57;;;;;;;3.67;2.20;;;;;;;25.02;22.67;100879.66;4488933;31;31963;-62
2022/04/29 08:23:25;;;;;;;4.65;2.50;;;;;;;24.76;21.45;100876.91;4491405;31;34099;-62
2022/04/29 08:25:53;;;;;;;5.93;2.28;;;;;;;25.13;21.96;100872.62;4483911;31;33869;-62
2022/04/29 08:28:23;;;;;;;6.35;2.50;;;;;;;25.36;21.52;100871.78;4495620;31;34826;-62
2022/04/29 08:30:50;;;;;;;4.75;2.53;;;;;;;25.10;21.23;100872.59;4494866;31;34459;-62
2022/04/29 08:33:21;;;;;;;4.70;2.60;;;;;;;25.05;21.27;100869.06;4493217;31;32747;-62
2022/04/29 08:35:55;;;;;;;;;;;;;;;24.96;23.07;100869.94;4495799;31;34169;-63
2022/04/29 08:38:23;;;;;;;3.92;2.53;;;;;;;25.09;21.41;100865.53;4499877;31;33898;-61
2022/04/29 08:40:51;;;;;;;7.50;2.67;;;;;;;25.40;21.67;100855.91;4495599;31;34680;-63
2022/04/29 08:43:22;;;;;;;4.60;2.60;;;;;;;24.72;24.32;100854.81;4482737;31;34139;-63
2022/04/29 08:45:51;;;;;;;6.28;2.20;;;;;;;24.96;23.90;100853.16;4490866;31;33931;-62
2022/04/29 08:48:28;;;;;;;4.28;2.50;;;;;;;24.42;22.87;100850.25;4489755;31;34025;-61
2022/04/29 08:50:57;;;;;;;5.37;2.35;;;;;;;24.21;23.47;100853.69;4488069;31;34642;-61
2022/04/29 08:53:24;;;;;;;4.43;2.33;;;;;;;24.72;21.33;100849.50;4487796;31;33416;-61
2022/04/29 08:58:39;;;;;;;5.60;2.50;;;;;;;24.93;22.27;100844.28;4493028;31;34698;-61
2022/04/29 09:01:09;;;;;;;5.65;2.50;;;;;;;24.48;22.74;100845.00;4494592;31;33812;-60
2022/04/29 09:03:42;;;;;;;4.85;2.45;;;;;;;23.91;24.43;100836.72;4492915;31;33726;-61
2022/04/29 09:06:14;;;;;;;6.45;2.60;;;;;;;24.01;23.45;100838.56;4490677;31;35051;-60
2022/04/29 09:08:48;;;;;;;4.40;2.17;;;;;;;23.99;23.18;100837.69;4497728;31;33541;-60
2022/04/29 09:11:25;;;;;;;4.50;2.22;;;;;;;23.65;22.82;100840.03;4496890;31;34011;-63
2022/04/29 09:13:53;;;;;;;4.60;2.20;;;;;;;23.89;21.39;100833.19;4482911;31;33112;-62
2022/04/29 09:16:21;;;;;;;5.00;2.65;;;;;;;23.47;22.52;100830.22;4498835;31;33405;-62
2022/04/29 09:18:55;;;;;;;5.68;2.72;;;;;;;23.49;23.28;100827.59;4491213;31;33622;-62
2022/04/29 09:21:25;;;;;;;5.55;2.33;;;;;;;23.60;23.79;100831.16;4490486;31;33603;-62
2022/04/29 09:23:56;;;;;;;4.68;2.42;;;;;;;23.79;21.44;100831.34;4484751;31;32742;-62
2022/04/29 09:26:28;;;;;;;5.30;2.33;;;;;;;23.99;20.39;100824.44;4485222;31;34305;-63
2022/04/29 09:29:10;;;;;;;7.47;2.67;;;;;;;23.79;19.92;100834.00;4485700;31;34444;-64
2022/04/29 09:32:11;;;;;;;9.10;2.80;;;;;;;23.90;22.76;100824.38;4484356;31;34407;-63
2022/04/29 09:34:58;;;;;;;6.10;2.40;;;;;;;24.27;22.90;100808.69;4470887;31;34248;-63
2022/04/29 09:37:28;;;;;;;4.28;2.15;;;;;;;24.53;20.98;100817.69;4483784;31;34618;-63
2022/04/29 09:40:00;;;;;;;5.62;2.58;;;;;;;23.44;24.39;100819.59;4483099;31;34247;-62
2022/04/29 09:42:42;;;;;;;66.25;6.37;;;;;;;22.69;22.66;100813.53;4485874;31;34532;-62
2022/04/29 09:45:18;;;;;;;8.30;2.35;;;;;;;23.50;23.76;100814.34;4485383;31;33459;-62
2022/04/29 09:47:52;;;;;;;8.23;2.28;;;;;;;22.92;24.82;100819.94;4490663;31;34448;-62
2022/04/29 09:50:20;;;;;;;4.30;2.10;;;;;;;22.52;24.98;100808.97;4488409;31;34138;-61
2022/04/29 09:52:49;;;;;;;4.55;2.30;;;;;;;22.62;22.24;100811.69;4493886;31;33987;-64
2022/04/29 09:55:18;;;;;;;7.90;2.95;;;;;;;22.03;23.67;100808.25;4491836;31;34384;-61
2022/04/29 09:57:59;;;;;;;7.97;2.20;;;;;;;22.09;23.65;100808.34;4496460;31;33907;-61
2022/04/29 10:00:27;;;;;;;6.85;2.40;;;;;;;22.03;23.54;100807.38;4489562;31;34035;-62
2022/04/29 10:02:56;;;;;;;5.25;2.17;;;;;;;22.09;23.17;100803.06;4498437;31;32931;-62
2022/04/29 10:05:25;;;;;;;4.75;2.22;;;;;;;21.74;22.21;100805.22;4490535;31;33468;-63
2022/04/29 10:07:54;;;;;;;8.05;2.30;;;;;;;21.61;22.56;100804.13;4489486;31;33916;-62
2022/04/29 10:10:24;;;;;;;3.42;1.80;;;;;;;21.72;23.49;100801.66;4484333;31;34407;-62
2022/04/29 10:12:51;;;;;;;3.22;1.70;;;;;;;21.21;25.16;100804.34;4487376;31;33773;-62
2022/04/29 10:15:22;;;;;;;5.12;2.30;;;;;;;21.87;23.56;100801.03;4492583;31;33807;-62
2022/04/29 10:23:32;;;;;;;4.53;2.17;;;;;;;22.29;24.35;100791.91;4489119;31;33989;-63
2022/04/29 10:26:01;;;;;;;4.55;2.05;;;;;;;22.63;23.28;100792.34;4496832;31;33231;-62
2022/04/29 10:28:29;;;;;;;4.40;2.35;;;;;;;22.82;24.23;100796.94;4488850;31;33975;-61
2022/04/29 10:31:09;;;;;;;5.60;2.42;;;;;;;23.42;21.70;100786.97;4492981;31;34694;-63
2022/04/29 10:33:37;;;;;;;7.00;2.35;;;;;;;23.69;22.42;100778.34;4489210;31;34519;-62
2022/04/29 10:36:09;;;;;;;3.58;2.10;;;;;;;24.10;23.21;100774.19;4496992;31;32544;-63
2022/04/29 10:38:40;;;;;;;6.28;2.40;;;;;;;24.69;22.33;100781.53;4493028;31;34661;-62
2022/04/29 10:41:10;;;;;;;6.40;2.45;;;;;;;24.03;20.44;100773.31;4492768;31;33637;-62
2022/04/29 10:43:38;;;;;;;10.38;2.83;;;;;;;23.68;22.18;100776.59;4485147;31;34096;-62
2022/04/29 10:46:06;;;;;;;5.60;2.60;;;;;;;24.67;19.93;100785.06;4491700;31;33839;-61
2022/04/29 10:48:42;;;;;;;9.38;3.53;;;;;;;24.52;22.91;100777.94;4497906;31;33951;-62
2022/04/29 10:51:16;;;;;;;7.15;3.00;;;;;;;24.25;24.04;100773.41;4489763;31;33573;-62
2022/04/29 10:53:50;;;;;;;5.80;2.78;;;;;;;21.84;26.87;100764.91;4492953;31;33962;-62
2022/04/29 10:56:30;;;;;;;5.07;2.53;;;;;;;21.27;27.80;100773.69;4496426;31;33368;-61
2022/04/29 10:59:04;;;;;;;5.03;3.10;;;;;;;22.07;26.16;100762.59;4492872;31;32761;-61
2022/04/29 11:01:33;;;;;;;7.47;3.30;;;;;;;21.31;28.29;100771.12;4489006;31;34689;-62
2022/04/29 11:04:05;;;;;;;5.18;2.58;;;;;;;21.20;29.28;100767.41;4491401;31;33467;-62
2022/04/29 11:06:37;;;;;;;6.35;2.60;;;;;;;21.28;29.49;100760.50;4491176;31;34334;-61
2022/04/29 11:09:31;;;;;;;6.75;2.65;;;;;;;21.90;27.78;100745.66;4488114;31;33507;-63
2022/04/29 11:11:59;;;;;;;3.67;2.30;;;;;;;21.08;28.90;100754.03;4491897;31;34801;-62
2022/04/29 11:15:08;;;;;;;5.43;2.62;;;;;;;21.00;27.76;100752.16;4490491;31;33446;-62
2022/04/29 11:17:39;;;;;;;6.05;2.70;;;;;;;21.72;26.93;100748.94;4493070;31;34177;-62
2022/04/29 11:20:15;;;;;;;4.28;2.45;;;;;;;21.59;27.40;100742.56;4491401;31;34186;-62
2022/04/29 11:26:00;;;;;;;5.82;2.30;;;;;;;21.93;25.12;100743.06;4475936;31;32266;-62
2022/04/29 11:28:36;;;;;;;4.93;2.40;;;;;;;22.15;24.36;100739.81;4492996;31;33515;-62
2022/04/29 11:31:08;;;;;;;4.25;2.35;;;;;;;22.66;23.79;100737.81;4495619;31;34353;-62
2022/04/29 11:33:37;;;;;;;6.25;2.80;;;;;;;23.07;24.11;100731.19;4488584;31;33904;-62
2022/04/29 11:36:10;;;;;;;4.57;2.78;;;;;;;22.49;28.15;100728.81;4495570;31;34003;-62
2022/04/29 11:38:42;;;;;;;4.85;2.58;;;;;;;22.31;26.94;100724.19;4494326;31;33673;-62
2022/04/29 11:41:18;;;;;;;5.30;2.75;;;;;;;22.91;28.65;100727.50;4491412;31;33835;-61
2022/04/29 11:43:50;;;;;;;6.03;2.80;;;;;;;21.90;29.69;100720.16;4496105;31;33642;-61
2022/04/29 11:46:18;;;;;;;5.57;2.65;;;;;;;21.69;29.03;100712.88;4495513;31;34467;-63
2022/04/29 11:49:05;;;;;;;4.03;2.60;;;;;;;20.90;29.10;100722.97;4491088;31;33356;-61
2022/04/29 11:51:34;;;;;;;6.40;3.05;;;;;;;20.93;29.39;100729.19;4493190;31;33542;-62
2022/04/29 11:54:04;;;;;;;5.85;3.00;;;;;;;20.47;30.05;100728.31;4494840;31;34652;-64
2022/04/29 11:56:37;;;;;;;5.93;3.03;;;;;;;21.27;29.04;100716.59;4490156;31;33867;-63
2022/04/29 11:59:09;;;;;;;5.53;2.78;;;;;;;21.20;26.92;100709.44;4496712;31;33257;-62
2022/04/29 12:01:37;;;;;;;5.75;2.85;;;;;;;21.39;28.37;100710.63;4492596;31;34671;-61
2022/04/29 12:04:06;;;;;;;6.43;3.03;;;;;;;21.10;26.25;100704.91;4497435;31;33722;-62
2022/04/29 12:06:33;;;;;;;4.90;2.67;;;;;;;20.97;27.21;100701.16;4496495;31;34480;-64